Time;durP1;ratioP1;P1;durP2;ratioP2;P2;SDS_P1;SDS_P2;PMS_P1;PMS_P2;Temp;Humidity;BMP_temperature;BMP_pressure;BME280_temperature;BME280_humidity;BME280_pressure;Samples;Min_cycle;Max_cycle;Signal;HPM_P1;HPM_P2
2022/07/01 00:02:10;;;;;;;8.15;7.38;;;20.70;99.90;;;;;;5087607;28;20402;-49
2022/07/01 00:04:36;;;;;;;7.85;7.20;;;20.70;99.90;;;;;;5088934;28;20059;-48
2022/07/01 00:07:02;;;;;;;8.25;7.55;;;20.80;99.90;;;;;;5091695;28;20032;-53
2022/07/01 00:09:27;;;;;;;8.23;7.50;;;20.80;99.90;;;;;;5087961;28;20399;-50
2022/07/01 00:11:53;;;;;;;7.85;7.18;;;20.90;99.90;;;;;;5081218;28;20032;-51
2022/07/01 00:14:19;;;;;;;9.80;8.63;;;20.90;99.90;;;;;;5092295;28;20024;-48
2022/07/01 00:16:45;;;;;;;6.82;5.82;;;20.90;99.90;;;;;;5089237;28;20485;-50
2022/07/01 00:19:10;;;;;;;4.60;4.20;;;20.80;99.90;;;;;;5084559;28;20103;-47
2022/07/01 00:21:36;;;;;;;3.90;3.58;;;20.70;99.90;;;;;;5092011;28;20073;-47
2022/07/01 00:24:02;;;;;;;6.38;3.88;;;20.60;99.90;;;;;;5088711;28;20038;-52
2022/07/01 00:26:27;;;;;;;4.00;3.50;;;20.50;99.90;;;;;;5087212;28;20478;-47
2022/07/01 00:28:53;;;;;;;4.60;3.78;;;20.40;99.90;;;;;;5083160;28;20035;-46
2022/07/01 00:31:18;;;;;;;3.88;3.28;;;20.30;99.90;;;;;;5087918;28;20025;-46
2022/07/01 00:33:44;;;;;;;3.63;3.33;;;20.20;99.90;;;;;;5088808;28;20021;-53
2022/07/01 00:36:10;;;;;;;3.40;3.10;;;20.20;99.90;;;;;;5088807;28;20028;-51
2022/07/01 00:38:36;;;;;;;3.88;3.00;;;20.10;99.90;;;;;;5084925;28;20210;-52
2022/07/01 00:41:01;;;;;;;3.17;2.80;;;20.10;99.90;;;;;;5088092;28;20031;-49
2022/07/01 00:43:27;;;;;;;2.97;2.78;;;20.00;99.90;;;;;;5086205;28;20030;-52
2022/07/01 00:45:53;;;;;;;5.80;3.10;;;20.00;99.90;;;;;;5090762;28;20020;-51
2022/07/01 00:48:20;;;;;;;4.18;2.60;;;20.00;99.90;;;;;;5083589;28;20052;-48
2022/07/01 00:50:46;;;;;;;4.50;2.72;;;19.90;99.90;;;;;;5091301;28;20028;-46
2022/07/01 00:53:13;;;;;;;2.83;2.50;;;19.90;99.90;;;;;;5086926;28;20030;-47
2022/07/01 00:55:40;;;;;;;2.90;2.47;;;19.90;99.90;;;;;;5091376;28;20026;-47
2022/07/01 00:58:06;;;;;;;2.17;1.98;;;19.90;99.90;;;;;;5085226;28;20020;-46
2022/07/01 01:00:32;;;;;;;4.93;2.40;;;19.90;99.90;;;;;;5085693;28;20032;-50
2022/07/01 01:02:58;;;;;;;3.38;1.77;;;19.80;99.90;;;;;;5076294;28;20120;-48
2022/07/01 01:05:25;;;;;;;2.80;2.40;;;19.70;99.90;;;;;;5089773;28;20474;-50
2022/07/01 01:07:50;;;;;;;2.50;2.28;;;19.70;99.90;;;;;;5091100;28;20028;-49
2022/07/01 01:10:17;;;;;;;2.88;2.10;;;19.70;99.90;;;;;;5086946;28;20115;-51
2022/07/01 01:12:43;;;;;;;2.65;2.38;;;19.60;99.90;;;;;;5091158;28;20582;-52
2022/07/01 01:15:10;;;;;;;2.15;2.05;;;19.60;99.90;;;;;;5091015;28;20059;-50
2022/07/01 01:17:37;;;;;;;2.65;2.25;;;19.60;99.90;;;;;;5088547;28;20425;-49
2022/07/01 01:20:03;;;;;;;2.65;2.22;;;19.70;99.90;;;;;;5088597;28;20051;-47
2022/07/01 01:22:29;;;;;;;2.58;2.38;;;19.70;99.90;;;;;;5080183;28;20043;-47
2022/07/01 01:24:57;;;;;;;2.40;2.20;;;19.60;99.90;;;;;;5065066;28;20089;-47
2022/07/01 01:27:23;;;;;;;3.92;2.33;;;19.50;99.90;;;;;;5084721;28;20020;-48
2022/07/01 01:29:48;;;;;;;4.22;2.30;;;19.50;99.90;;;;;;5085467;28;20085;-47
2022/07/01 01:32:14;;;;;;;3.20;2.35;;;19.50;99.90;;;;;;5087170;28;20028;-46
2022/07/01 01:34:40;;;;;;;2.38;2.13;;;19.50;99.90;;;;;;5089682;28;20028;-48
2022/07/01 01:37:07;;;;;;;3.70;2.28;;;19.40;99.90;;;;;;5088547;28;20024;-46
2022/07/01 01:39:33;;;;;;;2.83;2.45;;;19.40;99.90;;;;;;5080578;28;20032;-46
2022/07/01 01:41:58;;;;;;;2.60;2.40;;;19.30;99.90;;;;;;5081276;28;20027;-46
2022/07/01 01:44:24;;;;;;;3.15;2.80;;;19.30;99.90;;;;;;5084511;28;20029;-48
2022/07/01 01:46:49;;;;;;;2.78;2.58;;;19.20;99.90;;;;;;5089838;28;20055;-48
2022/07/01 01:49:15;;;;;;;3.50;2.65;;;19.00;99.90;;;;;;5081607;28;20048;-47
2022/07/01 01:51:40;;;;;;;3.67;2.58;;;18.90;99.90;;;;;;5089736;28;20043;-46
2022/07/01 01:54:06;;;;;;;2.97;2.78;;;18.80;99.90;;;;;;5090179;28;20482;-48
2022/07/01 01:56:32;;;;;;;2.95;2.65;;;18.80;99.90;;;;;;5072001;28;20023;-46
2022/07/01 01:58:58;;;;;;;2.92;2.72;;;18.80;99.90;;;;;;5088610;28;20046;-45
2022/07/01 02:01:24;;;;;;;3.03;2.78;;;18.80;99.90;;;;;;5079777;28;20075;-45
2022/07/01 02:03:51;;;;;;;4.13;2.60;;;18.80;99.90;;;;;;5084114;28;20056;-45
2022/07/01 02:06:18;;;;;;;3.38;2.78;;;18.80;99.90;;;;;;5078367;28;20021;-47
2022/07/01 02:08:44;;;;;;;4.05;2.80;;;18.90;99.90;;;;;;5086769;28;20028;-44
2022/07/01 02:11:10;;;;;;;3.00;2.70;;;18.90;99.90;;;;;;5087672;28;20032;-47
2022/07/01 02:13:36;;;;;;;3.28;2.50;;;18.90;99.90;;;;;;5089976;28;20027;-45
2022/07/01 02:16:02;;;;;;;3.05;2.72;;;18.90;99.90;;;;;;5089878;28;20107;-45
2022/07/01 02:18:28;;;;;;;3.00;2.70;;;18.90;99.90;;;;;;5083593;28;20063;-46
2022/07/01 02:20:54;;;;;;;4.30;3.17;;;18.90;99.90;;;;;;5088643;28;20058;-46
2022/07/01 02:23:20;;;;;;;4.03;3.00;;;18.90;99.90;;;;;;5089594;28;20020;-46
2022/07/01 02:25:46;;;;;;;4.65;2.72;;;18.90;99.90;;;;;;5086130;28;20039;-45
2022/07/01 02:28:12;;;;;;;3.38;2.95;;;18.90;99.90;;;;;;5083920;28;20043;-48
2022/07/01 02:30:38;;;;;;;2.85;2.60;;;18.90;99.90;;;;;;5083109;28;20490;-49
2022/07/01 02:33:05;;;;;;;3.08;2.67;;;18.90;99.90;;;;;;5084612;28;20049;-48
2022/07/01 02:35:35;;;;;;;3.00;2.80;;;18.80;99.90;;;;;;5086125;28;20386;-46
2022/07/01 02:38:01;;;;;;;3.90;2.85;;;18.90;99.90;;;;;;5091093;28;20035;-45
2022/07/01 02:40:27;;;;;;;3.40;3.10;;;18.90;99.90;;;;;;5089385;28;20024;-46
2022/07/01 02:42:52;;;;;;;3.97;2.83;;;18.90;99.90;;;;;;5088474;28;20057;-45
2022/07/01 02:45:18;;;;;;;3.45;2.78;;;18.90;99.90;;;;;;5085061;28;20020;-48
2022/07/01 02:47:44;;;;;;;3.30;3.10;;;18.90;99.90;;;;;;5089586;28;20401;-46
2022/07/01 02:50:11;;;;;;;3.58;3.05;;;18.80;99.90;;;;;;5084532;28;20632;-46
2022/07/01 02:52:40;;;;;;;3.28;2.78;;;18.80;99.90;;;;;;5088576;28;20075;-47
2022/07/01 02:55:08;;;;;;;3.72;3.03;;;18.80;99.90;;;;;;5086737;28;20016;-48
2022/07/01 02:57:34;;;;;;;3.58;3.10;;;18.90;99.90;;;;;;5078661;28;20040;-49
2022/07/01 03:00:00;;;;;;;3.30;3.00;;;18.80;99.90;;;;;;5061919;28;20055;-47
2022/07/01 03:02:26;;;;;;;4.38;2.78;;;18.90;99.90;;;;;;5086027;28;20477;-45
2022/07/01 03:04:53;;;;;;;3.20;2.90;;;18.80;99.90;;;;;;5088751;28;20037;-45
2022/07/01 03:07:20;;;;;;;3.75;3.30;;;18.80;99.90;;;;;;5087020;28;20022;-52
2022/07/01 03:09:46;;;;;;;3.92;3.63;;;18.80;99.90;;;;;;5089032;28;20052;-46
2022/07/01 03:12:25;;;;;;;3.03;2.70;;;18.90;99.90;;;;;;5078596;28;20046;-47
2022/07/01 03:14:58;;;;;;;3.60;3.30;;;18.90;99.90;;;;;;5083521;28;20050;-48
2022/07/01 03:17:25;;;;;;;2.78;2.58;;;18.90;99.90;;;;;;5084765;28;20016;-47
2022/07/01 03:19:51;;;;;;;3.75;3.45;;;18.90;99.90;;;;;;5085065;28;20093;-49
2022/07/01 03:22:18;;;;;;;4.35;3.80;;;18.90;99.90;;;;;;5088017;28;20030;-48
2022/07/01 03:24:43;;;;;;;3.70;3.30;;;18.90;99.90;;;;;;5084838;28;20035;-48
2022/07/01 03:27:09;;;;;;;4.82;3.25;;;19.00;99.90;;;;;;5087711;28;20036;-47
2022/07/01 03:29:35;;;;;;;5.43;3.55;;;19.00;99.90;;;;;;5084055;28;20506;-47
2022/07/01 03:32:00;;;;;;;4.97;3.95;;;18.90;99.90;;;;;;5086304;28;20111;-47
2022/07/01 03:34:26;;;;;;;3.65;2.92;;;19.00;99.90;;;;;;5083569;28;20039;-52
2022/07/01 03:36:52;;;;;;;4.05;3.65;;;19.00;99.90;;;;;;5084479;28;20024;-48
2022/07/01 03:39:17;;;;;;;4.57;4.15;;;19.00;99.90;;;;;;5085445;28;20028;-47
2022/07/01 03:41:44;;;;;;;4.28;3.53;;;19.00;99.90;;;;;;5073902;28;20027;-48
2022/07/01 03:44:09;;;;;;;5.55;3.90;;;18.90;99.90;;;;;;5092850;28;20563;-49
2022/07/01 03:46:35;;;;;;;6.05;4.95;;;18.80;99.90;;;;;;5093003;28;20032;-47
2022/07/01 03:49:01;;;;;;;7.97;5.85;;;18.80;99.90;;;;;;5089601;28;20036;-46
2022/07/01 03:51:27;;;;;;;5.47;4.97;;;18.80;99.90;;;;;;5086289;28;20028;-47
2022/07/01 03:56:37;;;;;;;6.97;6.28;;;18.80;99.90;;;;;;5089439;28;20058;-48
2022/07/01 03:59:03;;;;;;;8.68;7.00;;;18.80;99.90;;;;;;5057596;28;20486;-47
2022/07/01 04:01:28;;;;;;;7.40;6.68;;;18.70;99.90;;;;;;5090274;28;20028;-50
2022/07/01 04:03:54;;;;;;;7.07;6.38;;;18.70;99.90;;;;;;5086127;28;20032;-48
2022/07/01 04:06:20;;;;;;;7.45;6.68;;;18.70;99.90;;;;;;5090376;28;20030;-46
2022/07/01 04:08:47;;;;;;;9.38;6.53;;;18.70;99.90;;;;;;5084767;28;20024;-47
2022/07/01 04:11:13;;;;;;;7.45;6.18;;;18.70;99.90;;;;;;5087927;28;20061;-49
2022/07/01 04:13:39;;;;;;;10.65;7.13;;;18.70;99.90;;;;;;5092088;28;20024;-49
2022/07/01 04:16:06;;;;;;;7.90;7.13;;;18.70;99.90;;;;;;5087287;28;20051;-49
2022/07/01 04:18:31;;;;;;;8.25;7.32;;;18.70;99.90;;;;;;5092528;28;20053;-46
2022/07/01 04:23:42;;;;;;;7.18;6.47;;;18.70;99.90;;;;;;5087795;28;20046;-47
2022/07/01 04:26:08;;;;;;;7.28;6.60;;;18.80;99.90;;;;;;5092091;28;20024;-47
2022/07/01 04:28:34;;;;;;;8.23;7.53;;;18.70;99.90;;;;;;5085557;28;20070;-46
2022/07/01 04:31:00;;;;;;;8.27;7.15;;;18.80;99.90;;;;;;5089597;28;20032;-46
2022/07/01 04:33:25;;;;;;;7.20;6.57;;;18.70;99.90;;;;;;5085833;28;20115;-46
2022/07/01 04:35:51;;;;;;;7.55;6.80;;;18.70;99.90;;;;;;5085515;28;20024;-48
2022/07/01 04:38:17;;;;;;;7.80;7.10;;;18.70;99.90;;;;;;5086158;28;20016;-46
2022/07/01 04:41:58;;;;;;;8.25;7.45;;;18.70;99.90;;;;;;5089954;28;20028;-46
2022/07/01 04:43:28;;;;;;;8.10;7.40;;;18.60;99.90;;;;;;5088563;28;20716;-47
2022/07/01 04:45:54;;;;;;;20.83;10.65;;;18.60;99.90;;;;;;5091070;28;20055;-46
2022/07/01 04:48:20;;;;;;;16.25;10.02;;;18.50;99.90;;;;;;5086682;28;20066;-45
2022/07/01 04:50:46;;;;;;;11.85;9.00;;;18.40;99.90;;;;;;5091583;28;20117;-46
2022/07/01 04:53:13;;;;;;;18.42;10.73;;;18.40;99.90;;;;;;5088165;28;20027;-45
2022/07/01 04:55:39;;;;;;;12.80;10.27;;;18.40;99.90;;;;;;5091132;28;20406;-45
2022/07/01 04:58:04;;;;;;;14.05;10.68;;;18.30;99.90;;;;;;5070707;28;20016;-49
2022/07/01 05:00:30;;;;;;;10.80;9.43;;;18.40;99.90;;;;;;5088905;28;20036;-45
2022/07/01 05:02:56;;;;;;;17.65;10.35;;;18.30;99.90;;;;;;5089225;28;20028;-49
2022/07/01 05:05:21;;;;;;;14.23;9.40;;;18.30;99.90;;;;;;5087658;28;20552;-45
2022/07/01 05:07:47;;;;;;;14.80;9.95;;;18.30;99.90;;;;;;5091467;28;20039;-48
2022/07/01 05:10:13;;;;;;;9.32;8.27;;;18.20;99.90;;;;;;5091801;28;20052;-48
2022/07/01 05:12:39;;;;;;;9.88;8.52;;;18.20;99.90;;;;;;5090475;28;20486;-48
2022/07/01 05:15:06;;;;;;;17.13;9.75;;;18.20;99.90;;;;;;5088246;28;20394;-49
2022/07/01 05:23:01;;;;;;;15.38;8.85;;;18.00;99.90;;;;;;5088943;28;20053;-46
2022/07/01 05:25:26;;;;;;;16.92;6.68;;;18.00;99.90;;;;;;5084996;28;20499;-45
2022/07/01 05:27:52;;;;;;;10.60;5.28;;;17.90;99.90;;;;;;5084987;28;20043;-45
2022/07/01 05:30:17;;;;;;;8.93;4.90;;;17.80;99.90;;;;;;5062281;28;20094;-47
2022/07/01 05:32:43;;;;;;;9.18;4.20;;;17.70;99.90;;;;;;5082741;28;20112;-48
2022/07/01 05:35:08;;;;;;;11.13;4.13;;;17.60;99.90;;;;;;5160404;22;20131;-46
2022/07/01 05:37:34;;;;;;;13.85;5.32;;;17.60;99.90;;;;;;5062547;28;20029;-51
2022/07/01 05:39:59;;;;;;;8.90;4.10;;;17.50;99.90;;;;;;5064621;28;20487;-46
2022/07/01 05:42:25;;;;;;;14.20;4.32;;;17.40;99.90;;;;;;5081354;28;20031;-47
2022/07/01 05:44:50;;;;;;;9.50;4.15;;;17.20;99.90;;;;;;5071817;28;20028;-51
2022/07/01 05:47:16;;;;;;;12.00;3.67;;;17.20;99.90;;;;;;5076092;28;20082;-47
2022/07/01 05:49:42;;;;;;;6.47;3.97;;;17.20;99.90;;;;;;5050200;28;20060;-46
2022/07/01 05:52:07;;;;;;;9.90;3.15;;;17.10;99.90;;;;;;5067096;28;20413;-46
2022/07/01 05:54:33;;;;;;;7.25;3.13;;;17.10;99.90;;;;;;5073751;28;20106;-46
2022/07/01 05:56:58;;;;;;;6.65;2.95;;;17.00;99.90;;;;;;5069693;28;20024;-45
2022/07/01 05:59:24;;;;;;;5.75;2.67;;;16.90;99.90;;;;;;5076934;28;20021;-45
2022/07/01 06:01:50;;;;;;;5.78;2.70;;;16.90;99.90;;;;;;5066016;28;20146;-45
2022/07/01 06:04:16;;;;;;;6.80;2.97;;;16.80;99.90;;;;;;5062426;28;20020;-46
2022/07/01 06:06:42;;;;;;;7.50;2.90;;;16.80;99.90;;;;;;5061901;28;20550;-47
2022/07/01 06:09:08;;;;;;;6.95;2.75;;;16.80;99.90;;;;;;5050929;28;20115;-48
2022/07/01 06:11:33;;;;;;;6.15;3.33;;;16.80;99.90;;;;;;5074980;28;20115;-49
2022/07/01 06:13:59;;;;;;;7.25;2.35;;;16.80;99.90;;;;;;5072918;28;20024;-48
2022/07/01 06:16:24;;;;;;;9.90;2.50;;;16.80;99.90;;;;;;5081212;28;20087;-49
2022/07/01 06:18:50;;;;;;;3.58;2.25;;;16.80;99.90;;;;;;5075949;28;20069;-48
2022/07/01 06:21:16;;;;;;;2.05;1.77;;;16.80;99.90;;;;;;5073558;28;20078;-48
2022/07/01 06:23:42;;;;;;;5.70;1.70;;;16.80;99.90;;;;;;5075802;28;20047;-49
2022/07/01 06:26:08;;;;;;;4.78;1.75;;;16.80;99.90;;;;;;5063433;28;20482;-48
2022/07/01 06:28:33;;;;;;;6.95;1.90;;;16.70;99.90;;;;;;5062352;28;20115;-50
2022/07/01 06:30:59;;;;;;;5.68;1.77;;;16.70;99.90;;;;;;5069040;28;20497;-48
2022/07/01 06:33:27;;;;;;;4.63;1.90;;;16.60;99.90;;;;;;5062336;28;20043;-48
2022/07/01 06:35:52;;;;;;;3.53;1.75;;;16.50;99.90;;;;;;5070567;28;20112;-47
2022/07/01 06:38:18;;;;;;;2.63;1.05;;;16.50;99.90;;;;;;5070396;28;20156;-47
2022/07/01 06:41:26;;;;;;;2.15;1.10;;;16.50;99.90;;;;;;5066332;28;20025;-52
2022/07/01 06:43:29;;;;;;;4.17;1.63;;;16.40;99.90;;;;;;5073355;28;20036;-50
2022/07/01 06:45:55;;;;;;;4.30;1.60;;;16.50;99.90;;;;;;5065935;28;20543;-51
2022/07/01 06:48:20;;;;;;;5.43;1.55;;;16.40;99.90;;;;;;5077866;28;20099;-51
2022/07/01 06:50:46;;;;;;;4.25;1.95;;;16.40;99.90;;;;;;5063466;28;20025;-52
2022/07/01 06:53:11;;;;;;;4.25;2.13;;;16.40;99.90;;;;;;5060209;28;20032;-50
2022/07/01 06:55:37;;;;;;;4.22;1.67;;;16.40;99.90;;;;;;5062907;28;20064;-49
2022/07/01 06:58:04;;;;;;;2.15;1.23;;;16.40;99.90;;;;;;5059446;28;20028;-49
2022/07/01 07:00:29;;;;;;;3.13;1.67;;;16.40;99.90;;;;;;5055415;28;20028;-48
2022/07/01 07:02:55;;;;;;;3.92;1.52;;;16.40;99.90;;;;;;5060716;28;20020;-49
2022/07/01 07:05:20;;;;;;;5.07;1.60;;;16.40;99.90;;;;;;5076931;28;20097;-47
2022/07/01 07:07:46;;;;;;;2.80;1.80;;;16.40;99.90;;;;;;5069928;28;20024;-51
2022/07/01 07:10:11;;;;;;;2.47;1.58;;;16.30;99.90;;;;;;5072408;28;20047;-51
2022/07/01 07:12:37;;;;;;;4.07;1.50;;;16.30;99.90;;;;;;5069719;28;20040;-48
2022/07/01 07:15:03;;;;;;;2.33;1.58;;;16.30;99.90;;;;;;5076823;28;20361;-52
2022/07/01 07:17:29;;;;;;;3.30;1.70;;;16.30;99.90;;;;;;5057424;28;20031;-49
2022/07/01 07:19:55;;;;;;;2.88;1.60;;;16.40;99.90;;;;;;5068975;28;20016;-50
2022/07/01 07:22:21;;;;;;;6.22;1.63;;;16.40;99.90;;;;;;5072565;28;20028;-50
2022/07/01 07:24:46;;;;;;;2.88;2.35;;;16.50;99.90;;;;;;5077139;28;20035;-50
2022/07/01 07:27:12;;;;;;;5.53;2.45;;;16.50;99.90;;;;;;5071999;28;20415;-49
2022/07/01 07:29:38;;;;;;;7.85;3.58;;;16.50;99.90;;;;;;5069377;28;20104;-52
2022/07/01 07:32:03;;;;;;;5.25;2.03;;;16.50;99.90;;;;;;5070456;28;20064;-49
2022/07/01 07:34:29;;;;;;;1.83;1.70;;;16.50;99.90;;;;;;5068070;28;20499;-49
2022/07/01 07:36:55;;;;;;;2.88;2.10;;;16.50;99.90;;;;;;5067815;28;20063;-51
2022/07/01 07:39:20;;;;;;;2.63;1.60;;;16.40;99.90;;;;;;5082029;28;20036;-49
2022/07/01 07:41:46;;;;;;;5.18;2.53;;;16.50;99.90;;;;;;5075437;28;20066;-49
2022/07/01 07:44:11;;;;;;;5.18;1.88;;;16.50;99.90;;;;;;5061655;28;20475;-49
2022/07/01 07:46:37;;;;;;;4.30;2.50;;;16.60;99.90;;;;;;5079058;28;20039;-49
2022/07/01 07:49:03;;;;;;;8.98;3.38;;;16.60;99.90;;;;;;5035590;28;20140;-50
2022/07/01 07:51:28;;;;;;;2.65;1.85;;;16.60;99.90;;;;;;5061202;28;20032;-51
2022/07/01 07:53:54;;;;;;;3.45;2.22;;;16.50;99.90;;;;;;5062980;28;20493;-49
2022/07/01 07:56:20;;;;;;;4.55;2.45;;;16.50;99.90;;;;;;5060947;28;20062;-51
2022/07/01 07:58:46;;;;;;;7.40;2.67;;;16.50;99.90;;;;;;5060706;28;20099;-50
2022/07/01 08:01:11;;;;;;;13.57;4.32;;;16.60;99.90;;;;;;5071274;28;20178;-50
2022/07/01 08:03:37;;;;;;;4.03;2.60;;;16.50;99.90;;;;;;5065602;28;20031;-49
2022/07/01 08:06:03;;;;;;;5.25;2.78;;;16.40;99.90;;;;;;5068840;28;20399;-49
2022/07/01 08:08:28;;;;;;;4.07;2.28;;;16.40;99.90;;;;;;5069551;28;20036;-49
2022/07/01 08:10:54;;;;;;;3.92;2.45;;;16.50;99.90;;;;;;5066180;28;20028;-49
2022/07/01 08:13:20;;;;;;;3.72;2.47;;;16.50;99.90;;;;;;5069931;28;20406;-51
2022/07/01 08:15:46;;;;;;;4.15;2.60;;;16.50;99.90;;;;;;5068851;28;20032;-53
2022/07/01 08:18:11;;;;;;;6.82;2.80;;;16.50;99.90;;;;;;5066552;28;20027;-53
2022/07/01 08:20:37;;;;;;;3.10;2.75;;;16.50;99.90;;;;;;5066622;28;20032;-47
2022/07/01 08:23:02;;;;;;;3.35;3.05;;;16.50;99.90;;;;;;5069039;28;20091;-53
2022/07/01 08:25:28;;;;;;;4.88;3.40;;;16.40;99.90;;;;;;5076314;28;20032;-53
2022/07/01 08:27:54;;;;;;;4.88;3.30;;;16.40;99.90;;;;;;5068388;28;20029;-50
2022/07/01 08:30:19;;;;;;;6.43;3.90;;;16.40;99.90;;;;;;5072904;28;20037;-51
2022/07/01 08:32:45;;;;;;;4.97;2.92;;;16.30;99.90;;;;;;5076137;28;20028;-50
2022/07/01 08:35:10;;;;;;;4.72;3.35;;;16.30;99.90;;;;;;5072584;28;20514;-49
2022/07/01 08:37:36;;;;;;;3.95;3.30;;;16.30;99.90;;;;;;5070381;28;20110;-51
2022/07/01 08:40:02;;;;;;;6.68;3.88;;;16.30;99.90;;;;;;5081005;28;20095;-50
2022/07/01 08:42:27;;;;;;;2.42;2.22;;;16.30;99.90;;;;;;5068958;28;20023;-49
2022/07/01 08:44:53;;;;;;;3.83;2.90;;;16.20;99.90;;;;;;5082098;28;20061;-50
2022/07/01 08:47:19;;;;;;;3.55;3.20;;;16.20;99.90;;;;;;5062989;28;20021;-51
2022/07/01 08:49:44;;;;;;;3.72;3.30;;;16.20;99.90;;;;;;5078992;28;20063;-52
2022/07/01 08:52:10;;;;;;;3.40;3.10;;;16.20;99.90;;;;;;5077689;28;20078;-52
2022/07/01 08:54:38;;;;;;;5.53;3.10;;;16.20;99.90;;;;;;5067432;28;20021;-48
2022/07/01 08:57:04;;;;;;;4.30;3.47;;;16.30;99.90;;;;;;5070606;28;20016;-49
2022/07/01 08:59:31;;;;;;;3.90;3.60;;;16.40;99.90;;;;;;5070717;28;20021;-49
2022/07/01 09:02:01;;;;;;;4.53;4.00;;;16.30;99.90;;;;;;5065625;28;20052;-52
2022/07/01 09:04:28;;;;;;;5.18;4.00;;;16.40;99.90;;;;;;5061915;28;20025;-51
2022/07/01 09:07:03;;;;;;;4.97;3.92;;;16.50;99.90;;;;;;5067232;28;20063;-49
2022/07/01 09:09:28;;;;;;;5.18;4.57;;;16.40;99.90;;;;;;5045780;28;20032;-49
2022/07/01 09:11:55;;;;;;;4.40;4.07;;;16.40;99.90;;;;;;5065093;28;20036;-51
2022/07/01 09:14:29;;;;;;;5.43;5.03;;;16.40;99.90;;;;;;5069184;28;20095;-52
2022/07/01 09:16:57;;;;;;;4.40;4.00;;;16.30;99.90;;;;;;5048300;28;20025;-49
2022/07/01 09:19:24;;;;;;;6.43;4.88;;;16.30;99.90;;;;;;5063732;28;20140;-47
2022/07/01 09:22:01;;;;;;;7.22;4.88;;;16.30;99.90;;;;;;5073899;28;20021;-49
2022/07/01 09:24:34;;;;;;;5.10;4.70;;;16.30;99.90;;;;;;5078697;28;20056;-52
2022/07/01 09:27:13;;;;;;;5.75;5.00;;;16.30;99.90;;;;;;5047745;28;20025;-47
2022/07/01 09:29:41;;;;;;;6.70;5.80;;;16.20;99.90;;;;;;5066807;28;20067;-49
2022/07/01 09:32:09;;;;;;;5.38;4.53;;;16.20;99.90;;;;;;5066537;28;20028;-51
2022/07/01 09:34:46;;;;;;;4.63;4.20;;;16.20;99.90;;;;;;5078595;28;20062;-48
2022/07/01 09:37:22;;;;;;;4.95;4.55;;;16.20;99.90;;;;;;5081312;28;20048;-49
2022/07/01 09:39:54;;;;;;;6.07;4.72;;;16.20;99.90;;;;;;5075035;28;20047;-48
2022/07/01 09:42:23;;;;;;;5.60;4.85;;;16.20;99.90;;;;;;5067326;28;20032;-48
2022/07/01 09:45:04;;;;;;;6.13;5.53;;;16.20;99.90;;;;;;5063450;28;20488;-49
2022/07/01 09:47:31;;;;;;;6.40;5.80;;;16.30;99.90;;;;;;5081792;28;20528;-49
2022/07/01 09:49:57;;;;;;;6.03;5.43;;;16.30;99.90;;;;;;5081157;28;20366;-48
2022/07/01 09:52:24;;;;;;;11.50;5.95;;;16.30;99.90;;;;;;5077282;28;20047;-52
2022/07/01 09:54:50;;;;;;;5.90;5.13;;;16.40;99.90;;;;;;5074531;28;20017;-49
2022/07/01 09:57:20;;;;;;;9.18;5.40;;;16.40;99.90;;;;;;5075550;28;20031;-52
2022/07/01 09:59:48;;;;;;;5.25;4.75;;;16.40;99.90;;;;;;5082378;28;20425;-48
2022/07/01 10:02:15;;;;;;;8.50;5.25;;;16.40;99.90;;;;;;5076862;28;20028;-49
2022/07/01 10:04:46;;;;;;;6.47;4.07;;;16.40;99.90;;;;;;5075852;28;20537;-53
2022/07/01 10:07:30;;;;;;;6.15;5.05;;;16.50;99.90;;;;;;5081966;28;20119;-54
2022/07/01 10:10:04;;;;;;;4.32;3.20;;;16.50;99.90;;;;;;5078029;28;20028;-53
2022/07/01 10:12:35;;;;;;;5.50;4.13;;;16.50;99.90;;;;;;5073432;28;20056;-48
2022/07/01 10:15:04;;;;;;;4.70;4.30;;;16.60;99.90;;;;;;5078222;28;20157;-51
2022/07/01 10:17:34;;;;;;;4.53;3.97;;;16.70;99.90;;;;;;5077834;28;20025;-53
2022/07/01 10:20:09;;;;;;;7.78;3.95;;;16.70;99.90;;;;;;5078224;28;20091;-51
2022/07/01 10:22:37;;;;;;;4.25;3.90;;;16.70;99.90;;;;;;5080833;28;20577;-54
2022/07/01 10:25:34;;;;;;;3.53;3.22;;;16.60;99.90;;;;;;5051278;28;20063;-51
2022/07/01 10:28:25;;;;;;;5.15;3.30;;;16.50;99.90;;;;;;5073714;28;20039;-50
2022/07/01 10:31:04;;;;;;;3.80;3.45;;;16.50;99.90;;;;;;5051920;28;20035;-54
2022/07/01 10:33:42;;;;;;;7.60;4.20;;;16.40;99.90;;;;;;5080750;28;20436;-54
2022/07/01 10:36:16;;;;;;;6.07;4.88;;;16.40;99.90;;;;;;5078526;28;20066;-50
2022/07/01 10:39:06;;;;;;;5.47;4.40;;;16.40;99.90;;;;;;5075331;28;20016;-49
2022/07/01 10:41:41;;;;;;;6.30;4.28;;;16.40;99.90;;;;;;5069070;28;20024;-50
2022/07/01 10:44:16;;;;;;;4.75;4.35;;;16.40;99.90;;;;;;5080008;28;20024;-53
2022/07/01 10:46:45;;;;;;;4.40;4.00;;;16.30;99.90;;;;;;5079766;28;20112;-54
2022/07/01 10:49:36;;;;;;;8.88;4.57;;;16.30;99.90;;;;;;5051626;28;20020;-52
2022/07/01 10:52:09;;;;;;;9.80;5.78;;;16.40;99.90;;;;;;5071617;28;20024;-52
2022/07/01 10:54:39;;;;;;;5.13;4.53;;;16.30;99.90;;;;;;5080995;28;20509;-53
2022/07/01 10:57:16;;;;;;;12.10;7.45;;;16.30;99.90;;;;;;5072432;28;20019;-55
2022/07/01 10:59:43;;;;;;;5.20;4.65;;;16.30;99.90;;;;;;5081125;28;20024;-56
2022/07/01 11:02:14;;;;;;;4.90;4.50;;;16.30;99.90;;;;;;5077359;28;20166;-55
2022/07/01 11:04:39;;;;;;;6.40;5.57;;;16.30;99.90;;;;;;5076282;28;20024;-53
2022/07/01 11:07:05;;;;;;;6.53;5.00;;;16.30;99.90;;;;;;5078576;28;20133;-55
2022/07/01 11:09:30;;;;;;;6.15;5.20;;;16.20;99.90;;;;;;5063967;28;20114;-55
2022/07/01 11:11:56;;;;;;;5.60;5.07;;;16.20;99.90;;;;;;5079448;28;20497;-53
2022/07/01 11:14:22;;;;;;;5.32;4.93;;;16.30;99.90;;;;;;5076139;28;20024;-53
2022/07/01 11:16:48;;;;;;;5.82;5.25;;;16.20;99.90;;;;;;5082236;28;20028;-52
2022/07/01 11:19:18;;;;;;;6.15;5.55;;;16.20;99.90;;;;;;5049558;28;20056;-55
2022/07/01 11:21:51;;;;;;;7.22;6.38;;;16.20;99.90;;;;;;5063356;28;20028;-54
2022/07/01 11:24:17;;;;;;;6.00;4.95;;;16.30;99.90;;;;;;5046400;28;20020;-56
2022/07/01 11:26:43;;;;;;;7.53;6.28;;;16.40;99.90;;;;;;5076477;28;20539;-54
2022/07/01 11:29:13;;;;;;;5.43;4.93;;;16.40;99.90;;;;;;5050874;28;20041;-54
2022/07/01 11:31:39;;;;;;;6.53;5.85;;;16.50;99.90;;;;;;5075593;28;20502;-53
2022/07/01 11:34:05;;;;;;;6.85;6.15;;;16.50;99.90;;;;;;5080185;22;20056;-48
2022/07/01 11:39:35;;;;;;;7.22;6.63;;;16.50;99.90;;;;;;5025454;28;20041;-47
2022/07/01 11:42:04;;;;;;;7.55;6.88;;;16.60;99.90;;;;;;5071369;28;20029;-47
2022/07/01 11:44:34;;;;;;;6.82;6.15;;;16.60;99.90;;;;;;5075783;28;20115;-46
2022/07/01 11:47:01;;;;;;;7.20;6.60;;;16.70;99.90;;;;;;5080874;28;20029;-46
2022/07/01 11:49:27;;;;;;;6.82;6.13;;;16.70;99.90;;;;;;5080762;28;20111;-46
2022/07/01 11:51:58;;;;;;;5.72;5.22;;;16.80;99.90;;;;;;5078578;28;20162;-46
2022/07/01 11:54:24;;;;;;;8.18;7.25;;;16.80;99.90;;;;;;5080171;28;20016;-46
2022/07/01 11:56:50;;;;;;;8.88;6.07;;;16.90;99.90;;;;;;5079443;28;20039;-46
2022/07/01 11:59:16;;;;;;;7.80;7.10;;;16.80;99.90;;;;;;5080249;28;20478;-46
2022/07/01 12:01:43;;;;;;;6.95;6.22;;;16.80;99.90;;;;;;5082529;28;20028;-47
2022/07/01 12:04:09;;;;;;;6.80;6.20;;;16.80;99.90;;;;;;5078026;28;20028;-47
2022/07/01 12:06:38;;;;;;;6.32;5.72;;;16.80;99.90;;;;;;5084226;28;20032;-46
2022/07/01 12:09:04;;;;;;;9.73;5.82;;;16.80;99.90;;;;;;5078017;28;20020;-46
2022/07/01 12:11:29;;;;;;;6.80;5.80;;;16.80;99.90;;;;;;5084012;28;20169;-48
2022/07/01 12:13:58;;;;;;;6.50;5.75;;;16.80;99.90;;;;;;5077607;28;20021;-46
2022/07/01 12:16:25;;;;;;;11.13;7.38;;;16.70;99.90;;;;;;5084296;28;20016;-48
2022/07/01 12:19:01;;;;;;;6.00;5.50;;;16.70;99.90;;;;;;5077758;28;20059;-48
2022/07/01 12:21:28;;;;;;;6.65;6.05;;;16.70;99.90;;;;;;5083622;28;20091;-45
2022/07/01 12:24:06;;;;;;;6.32;5.72;;;16.70;99.90;;;;;;5060368;28;20025;-46
2022/07/01 12:26:32;;;;;;;6.38;5.78;;;16.60;99.90;;;;;;5072167;28;20110;-45
2022/07/01 12:28:58;;;;;;;7.07;6.38;;;16.60;99.90;;;;;;5076856;28;20111;-46
2022/07/01 12:31:23;;;;;;;5.45;5.00;;;16.60;99.90;;;;;;5084281;28;20560;-45
2022/07/01 12:33:51;;;;;;;5.90;5.40;;;16.60;99.90;;;;;;5076847;28;20465;-49
2022/07/01 12:36:17;;;;;;;6.32;5.72;;;16.70;99.90;;;;;;5076911;28;20111;-46
2022/07/01 12:38:43;;;;;;;6.82;5.22;;;16.70;99.90;;;;;;5073250;28;20095;-48
2022/07/01 12:41:35;;;;;;;6.90;5.28;;;16.70;99.90;;;;;;5061698;28;20609;-46
2022/07/01 12:44:06;;;;;;;5.88;5.22;;;16.60;99.90;;;;;;5068915;28;20028;-46
2022/07/01 12:46:32;;;;;;;6.70;5.60;;;16.60;99.90;;;;;;5085645;28;20150;-46
2022/07/01 12:49:00;;;;;;;7.15;6.07;;;16.70;99.90;;;;;;5081406;28;20463;-46
2022/07/01 12:51:33;;;;;;;5.93;5.35;;;16.80;99.90;;;;;;5077012;28;20051;-45
2022/07/01 12:53:59;;;;;;;6.72;4.75;;;16.80;99.90;;;;;;5081338;28;20079;-46
2022/07/01 12:56:27;;;;;;;5.95;4.18;;;16.90;99.90;;;;;;5082343;28;20024;-49
2022/07/01 12:58:54;;;;;;;7.10;5.32;;;17.00;99.90;;;;;;5081091;28;20029;-47
2022/07/01 13:01:20;;;;;;;8.50;5.75;;;17.20;99.90;;;;;;5063271;28;20391;-47